EWG7KD LOWW-EDDL
Flight info
| Callsign | EWG7KD |
|---|---|
| Flight time | 1h 22m |
| Altitude | 32000 |
| Route | BUWUT DCT DITIS DCT RAPET T843 VELIS DCT AMETU T852 EKSAK/N0396F260 T852 KULIX/N0386F240 T852 TINSA T854 DOMUX DOMUX1A |
| Aircraft | A320/M-SDE3FGHIRWY/LB1 |
Departure
| Time | 2026-05-06 15:58 |
|---|---|
| Airport | Vienna International Airport (LOWW) |
Arrival
| Time | 2026-05-06 17:20 |
|---|---|
| Airport | Düsseldorf Airport (EDDL) |
| Time | Latitude | Longitude | Altitude | Speed | Heading |
|---|---|---|---|---|---|
| 2026-05-06 15:42 | 48.11842 | 16.56936 | 602 ft | 0 kts | 197° |
| 2026-05-06 15:43 | 48.11826 | 16.56980 | 602 ft | 0 kts | 197° |
| 2026-05-06 15:51 | 48.11827 | 16.56981 | 602 ft | 2 kts | 197° |
| 2026-05-06 15:52 | 48.11850 | 16.56996 | 601 ft | 4 kts | 214° |
| 2026-05-06 15:52 | 48.11871 | 16.57016 | 601 ft | 2 kts | 206° |
| 2026-05-06 15:52 | 48.11893 | 16.57029 | 600 ft | 4 kts | 183° |
| 2026-05-06 15:52 | 48.11915 | 16.57021 | 600 ft | 4 kts | 132° |
| 2026-05-06 15:53 | 48.11922 | 16.57008 | 600 ft | 0 kts | 115° |
| 2026-05-06 15:54 | 48.11920 | 16.57016 | 600 ft | 4 kts | 115° |
| 2026-05-06 15:55 | 48.11899 | 16.57082 | 600 ft | 10 kts | 115° |
| 2026-05-06 15:55 | 48.11866 | 16.57183 | 602 ft | 12 kts | 115° |
| 2026-05-06 15:55 | 48.11831 | 16.57295 | 603 ft | 12 kts | 115° |
| 2026-05-06 15:55 | 48.11811 | 16.57414 | 602 ft | 10 kts | 83° |
| 2026-05-06 15:56 | 48.11828 | 16.57512 | 602 ft | 9 kts | 74° |
| 2026-05-06 15:56 | 48.11843 | 16.57591 | 603 ft | 6 kts | 74° |
| 2026-05-06 15:56 | 48.11855 | 16.57651 | 603 ft | 8 kts | 74° |
| 2026-05-06 15:56 | 48.11859 | 16.57751 | 603 ft | 12 kts | 99° |
| 2026-05-06 15:57 | 48.11811 | 16.57877 | 602 ft | 16 kts | 152° |
| 2026-05-06 15:57 | 48.11572 | 16.57986 | 605 ft | 67 kts | 165° |
| 2026-05-06 15:57 | 48.10928 | 16.58251 | 617 ft | 122 kts | 163° |
| 2026-05-06 15:57 | 48.09964 | 16.58656 | 698 ft | 155 kts | 165° |
| 2026-05-06 15:58 | 48.08951 | 16.59096 | 1318 ft | 152 kts | 168° |
| 2026-05-06 15:58 | 48.07923 | 16.59522 | 1931 ft | 155 kts | 169° |
| 2026-05-06 15:58 | 48.06816 | 16.59972 | 2243 ft | 176 kts | 168° |
| 2026-05-06 15:58 | 48.05626 | 16.60752 | 2492 ft | 205 kts | 142° |
| 2026-05-06 15:59 | 48.04938 | 16.62785 | 2809 ft | 244 kts | 101° |
| 2026-05-06 15:59 | 48.05305 | 16.65360 | 3346 ft | 273 kts | 65° |
| 2026-05-06 15:59 | 48.06584 | 16.67577 | 3883 ft | 294 kts | 43° |
| 2026-05-06 15:59 | 48.08213 | 16.69522 | 4577 ft | 305 kts | 39° |
| 2026-05-06 16:00 | 48.09900 | 16.71466 | 5482 ft | 306 kts | 38° |
| 2026-05-06 16:00 | 48.11597 | 16.73421 | 6343 ft | 308 kts | 38° |
| 2026-05-06 16:00 | 48.13240 | 16.75436 | 7159 ft | 310 kts | 39° |
| 2026-05-06 16:00 | 48.15037 | 16.77250 | 7939 ft | 313 kts | 25° |
| 2026-05-06 16:01 | 48.17102 | 16.78291 | 8741 ft | 312 kts | 5° |
| 2026-05-06 16:01 | 48.19229 | 16.78271 | 9527 ft | 308 kts | 346° |
| 2026-05-06 16:01 | 48.21349 | 16.77722 | 10270 ft | 311 kts | 345° |
| 2026-05-06 16:01 | 48.23587 | 16.77110 | 10509 ft | 334 kts | 345° |
| 2026-05-06 16:02 | 48.25914 | 16.76470 | 10759 ft | 354 kts | 346° |
| 2026-05-06 16:02 | 48.28358 | 16.75813 | 11348 ft | 360 kts | 346° |
| 2026-05-06 16:02 | 48.30841 | 16.75154 | 12041 ft | 365 kts | 347° |
| 2026-05-06 16:02 | 48.33345 | 16.74421 | 12701 ft | 368 kts | 341° |
| 2026-05-06 16:03 | 48.35747 | 16.73108 | 13347 ft | 368 kts | 330° |
| 2026-05-06 16:03 | 48.38023 | 16.71310 | 13967 ft | 370 kts | 328° |
| 2026-05-06 16:03 | 48.40303 | 16.69493 | 14583 ft | 372 kts | 326° |
| 2026-05-06 16:03 | 48.42407 | 16.67256 | 15197 ft | 369 kts | 314° |
| 2026-05-06 16:04 | 48.44167 | 16.64448 | 15810 ft | 366 kts | 303° |
| 2026-05-06 16:04 | 48.45512 | 16.61197 | 16437 ft | 363 kts | 291° |
| 2026-05-06 16:04 | 48.46447 | 16.57675 | 17026 ft | 363 kts | 286° |
| 2026-05-06 16:04 | 48.47320 | 16.54100 | 17625 ft | 366 kts | 286° |
| 2026-05-06 16:05 | 48.48206 | 16.50491 | 18206 ft | 368 kts | 286° |
| 2026-05-06 16:05 | 48.49088 | 16.46905 | 18725 ft | 371 kts | 286° |
| 2026-05-06 16:05 | 48.50001 | 16.43204 | 19248 ft | 373 kts | 286° |
| 2026-05-06 16:05 | 48.50899 | 16.39560 | 19767 ft | 376 kts | 286° |
| 2026-05-06 16:06 | 48.51810 | 16.35860 | 20288 ft | 378 kts | 286° |
| 2026-05-06 16:06 | 48.52728 | 16.32123 | 20816 ft | 381 kts | 286° |
| 2026-05-06 16:06 | 48.53647 | 16.28367 | 21326 ft | 383 kts | 285° |
| 2026-05-06 16:06 | 48.54571 | 16.24572 | 21849 ft | 386 kts | 286° |
| 2026-05-06 16:07 | 48.55499 | 16.20755 | 22371 ft | 388 kts | 285° |
| 2026-05-06 16:07 | 48.56435 | 16.16908 | 22851 ft | 390 kts | 285° |
| 2026-05-06 16:07 | 48.57368 | 16.13077 | 23321 ft | 393 kts | 286° |
| 2026-05-06 16:07 | 48.58378 | 16.09217 | 23713 ft | 397 kts | 287° |
| 2026-05-06 16:08 | 48.59469 | 16.05361 | 24104 ft | 399 kts | 288° |
| 2026-05-06 16:08 | 48.60595 | 16.01530 | 24480 ft | 402 kts | 289° |
| 2026-05-06 16:08 | 48.61745 | 15.97662 | 24852 ft | 403 kts | 289° |
| 2026-05-06 16:08 | 48.62522 | 15.95039 | 25104 ft | 405 kts | 289° |
| 2026-05-06 16:09 | 48.63947 | 15.90160 | 25538 ft | 407 kts | 288° |
| 2026-05-06 16:09 | 48.65077 | 15.86220 | 25890 ft | 409 kts | 288° |
| 2026-05-06 16:09 | 48.66208 | 15.82239 | 26273 ft | 410 kts | 287° |
| 2026-05-06 16:09 | 48.67323 | 15.78304 | 26675 ft | 411 kts | 287° |
| 2026-05-06 16:10 | 48.68445 | 15.74332 | 27042 ft | 412 kts | 287° |
| 2026-05-06 16:10 | 48.69570 | 15.70336 | 27376 ft | 413 kts | 287° |
| 2026-05-06 16:10 | 48.70697 | 15.66331 | 27717 ft | 415 kts | 287° |
| 2026-05-06 16:10 | 48.71834 | 15.62291 | 28048 ft | 416 kts | 287° |
| 2026-05-06 16:11 | 48.72586 | 15.59625 | 28271 ft | 417 kts | 287° |
| 2026-05-06 16:11 | 48.73730 | 15.55564 | 28564 ft | 419 kts | 287° |
| 2026-05-06 16:11 | 48.74874 | 15.51492 | 28866 ft | 421 kts | 287° |
| 2026-05-06 16:11 | 48.76020 | 15.47403 | 29160 ft | 422 kts | 287° |
| 2026-05-06 16:12 | 48.77174 | 15.43270 | 29490 ft | 424 kts | 286° |
| 2026-05-06 16:12 | 48.78328 | 15.39132 | 29806 ft | 424 kts | 286° |
| 2026-05-06 16:12 | 48.79465 | 15.35061 | 30036 ft | 425 kts | 286° |
| 2026-05-06 16:12 | 48.80762 | 15.30996 | 30286 ft | 432 kts | 293° |
| 2026-05-06 16:13 | 48.82458 | 15.27182 | 30499 ft | 439 kts | 298° |
| 2026-05-06 16:13 | 48.84253 | 15.23413 | 30750 ft | 438 kts | 298° |
| 2026-05-06 16:13 | 48.86037 | 15.19656 | 31073 ft | 436 kts | 298° |
| 2026-05-06 16:13 | 48.87786 | 15.15950 | 31376 ft | 435 kts | 297° |
| 2026-05-06 16:14 | 48.89555 | 15.12189 | 31654 ft | 434 kts | 297° |
| 2026-05-06 16:14 | 48.91325 | 15.08463 | 31722 ft | 427 kts | 298° |
| 2026-05-06 16:14 | 48.94811 | 15.01348 | 31728 ft | 419 kts | 298° |
| 2026-05-06 16:15 | 48.98301 | 14.94249 | 31730 ft | 418 kts | 298° |
| 2026-05-06 16:15 | 49.01763 | 14.87149 | 31730 ft | 417 kts | 298° |
| 2026-05-06 16:16 | 49.05200 | 14.80051 | 31731 ft | 416 kts | 298° |
| 2026-05-06 16:16 | 49.08636 | 14.72935 | 31730 ft | 416 kts | 298° |
| 2026-05-06 16:17 | 49.12074 | 14.65809 | 31743 ft | 416 kts | 298° |
| 2026-05-06 16:17 | 49.15504 | 14.58688 | 31729 ft | 416 kts | 298° |
| 2026-05-06 16:18 | 49.18928 | 14.51538 | 31719 ft | 416 kts | 298° |
| 2026-05-06 16:18 | 49.22346 | 14.44386 | 31718 ft | 417 kts | 298° |
| 2026-05-06 16:19 | 49.25762 | 14.37221 | 31718 ft | 416 kts | 297° |
| 2026-05-06 16:19 | 49.29173 | 14.30042 | 31747 ft | 417 kts | 298° |
| 2026-05-06 16:20 | 49.32586 | 14.22855 | 31752 ft | 417 kts | 298° |
| 2026-05-06 16:20 | 49.35975 | 14.15703 | 31747 ft | 417 kts | 298° |
| 2026-05-06 16:21 | 49.39386 | 14.08487 | 31736 ft | 417 kts | 298° |
| 2026-05-06 16:21 | 49.42781 | 14.01276 | 31723 ft | 417 kts | 298° |
| 2026-05-06 16:22 | 49.46171 | 13.94052 | 31748 ft | 417 kts | 298° |
| 2026-05-06 16:22 | 49.49571 | 13.86772 | 31738 ft | 418 kts | 298° |
| 2026-05-06 16:23 | 49.52971 | 13.79514 | 31735 ft | 418 kts | 298° |
| 2026-05-06 16:23 | 49.56363 | 13.72237 | 31735 ft | 418 kts | 298° |
| 2026-05-06 16:24 | 49.59727 | 13.64981 | 31737 ft | 418 kts | 298° |
| 2026-05-06 16:24 | 49.63104 | 13.57675 | 31777 ft | 418 kts | 298° |
| 2026-05-06 16:25 | 49.66513 | 13.50298 | 31755 ft | 419 kts | 298° |
| 2026-05-06 16:25 | 49.69867 | 13.43017 | 31745 ft | 419 kts | 298° |
| 2026-05-06 16:26 | 49.73241 | 13.35671 | 31742 ft | 419 kts | 298° |
| 2026-05-06 16:26 | 49.76619 | 13.28301 | 31740 ft | 420 kts | 298° |
| 2026-05-06 16:27 | 49.79991 | 13.20915 | 31741 ft | 420 kts | 298° |
| 2026-05-06 16:27 | 49.83369 | 13.13509 | 31741 ft | 420 kts | 298° |
| 2026-05-06 16:28 | 49.86702 | 13.06184 | 31744 ft | 419 kts | 298° |
| 2026-05-06 16:28 | 49.90049 | 12.98785 | 31748 ft | 419 kts | 297° |
| 2026-05-06 16:29 | 49.93419 | 12.91326 | 31770 ft | 419 kts | 298° |
| 2026-05-06 16:29 | 49.96753 | 12.83920 | 31761 ft | 420 kts | 298° |
| 2026-05-06 16:30 | 49.99560 | 12.77668 | 31773 ft | 422 kts | 298° |
| 2026-05-06 16:30 | 50.03460 | 12.68950 | 31756 ft | 423 kts | 298° |
| 2026-05-06 16:31 | 50.06831 | 12.61404 | 31755 ft | 424 kts | 298° |
| 2026-05-06 16:31 | 50.10198 | 12.53862 | 31756 ft | 424 kts | 298° |
| 2026-05-06 16:32 | 50.13560 | 12.46299 | 31758 ft | 424 kts | 298° |
| 2026-05-06 16:32 | 50.16916 | 12.38727 | 31772 ft | 425 kts | 298° |
| 2026-05-06 16:33 | 50.19522 | 12.30661 | 31765 ft | 411 kts | 281° |
| 2026-05-06 16:34 | 50.21589 | 12.17757 | 31770 ft | 408 kts | 278° |
| 2026-05-06 16:34 | 50.22945 | 12.09139 | 31764 ft | 409 kts | 278° |
| 2026-05-06 16:35 | 50.24286 | 12.00572 | 31802 ft | 409 kts | 278° |
| 2026-05-06 16:35 | 50.25626 | 11.91935 | 31783 ft | 410 kts | 278° |
| 2026-05-06 16:36 | 50.26977 | 11.83258 | 31776 ft | 410 kts | 278° |
| 2026-05-06 16:36 | 50.28329 | 11.74535 | 31776 ft | 410 kts | 278° |
| 2026-05-06 16:37 | 50.29653 | 11.65869 | 31769 ft | 410 kts | 278° |
| 2026-05-06 16:37 | 50.30978 | 11.57172 | 31793 ft | 411 kts | 278° |
| 2026-05-06 16:38 | 50.32269 | 11.48554 | 31775 ft | 411 kts | 278° |
| 2026-05-06 16:38 | 50.33560 | 11.39828 | 31761 ft | 411 kts | 278° |
| 2026-05-06 16:39 | 50.34849 | 11.31091 | 31752 ft | 412 kts | 278° |
| 2026-05-06 16:39 | 50.36124 | 11.22384 | 31749 ft | 411 kts | 278° |
| 2026-05-06 16:40 | 50.37405 | 11.13629 | 31768 ft | 412 kts | 278° |
| 2026-05-06 16:40 | 50.38679 | 11.04864 | 31749 ft | 413 kts | 278° |
| 2026-05-06 16:41 | 50.39890 | 10.96483 | 31746 ft | 414 kts | 278° |
| 2026-05-06 16:41 | 50.41156 | 10.87708 | 31745 ft | 414 kts | 278° |
| 2026-05-06 16:42 | 50.42414 | 10.78876 | 31742 ft | 414 kts | 277° |
| 2026-05-06 16:42 | 50.43659 | 10.70051 | 31748 ft | 415 kts | 277° |
| 2026-05-06 16:43 | 50.44930 | 10.61191 | 31757 ft | 416 kts | 278° |
| 2026-05-06 16:43 | 50.46212 | 10.52356 | 31749 ft | 417 kts | 278° |
| 2026-05-06 16:44 | 50.47879 | 10.43594 | 31750 ft | 422 kts | 287° |
| 2026-05-06 16:44 | 50.50021 | 10.35007 | 31757 ft | 423 kts | 287° |
| 2026-05-06 16:45 | 50.52163 | 10.26394 | 31759 ft | 423 kts | 287° |
| 2026-05-06 16:45 | 50.54289 | 10.17760 | 31770 ft | 423 kts | 287° |
| 2026-05-06 16:46 | 50.56052 | 10.10579 | 31765 ft | 423 kts | 287° |
| 2026-05-06 16:46 | 50.58170 | 10.01929 | 31756 ft | 423 kts | 287° |
| 2026-05-06 16:47 | 50.60280 | 9.93283 | 31766 ft | 424 kts | 287° |
| 2026-05-06 16:47 | 50.62379 | 9.84611 | 31773 ft | 424 kts | 287° |
| 2026-05-06 16:48 | 50.64477 | 9.75919 | 31779 ft | 424 kts | 287° |
| 2026-05-06 16:48 | 50.66573 | 9.67219 | 31779 ft | 424 kts | 287° |
| 2026-05-06 16:49 | 50.68664 | 9.58516 | 31779 ft | 424 kts | 287° |
| 2026-05-06 16:49 | 50.70751 | 9.49812 | 31780 ft | 424 kts | 287° |
| 2026-05-06 16:50 | 50.72821 | 9.41080 | 31779 ft | 424 kts | 287° |
| 2026-05-06 16:50 | 50.74884 | 9.32356 | 31818 ft | 424 kts | 287° |
| 2026-05-06 16:51 | 50.76942 | 9.23632 | 31814 ft | 424 kts | 287° |
| 2026-05-06 16:51 | 50.78992 | 9.14951 | 31821 ft | 423 kts | 287° |
| 2026-05-06 16:52 | 50.81040 | 9.06224 | 31820 ft | 423 kts | 286° |
| 2026-05-06 16:52 | 50.83198 | 8.97564 | 31813 ft | 426 kts | 294° |
| 2026-05-06 16:53 | 50.86625 | 8.89836 | 31808 ft | 432 kts | 304° |
| 2026-05-06 16:53 | 50.90366 | 8.82386 | 31804 ft | 432 kts | 304° |
| 2026-05-06 16:54 | 50.94083 | 8.74941 | 31803 ft | 432 kts | 304° |
| 2026-05-06 16:54 | 50.97806 | 8.67458 | 31798 ft | 431 kts | 304° |
| 2026-05-06 16:55 | 51.01696 | 8.60184 | 31799 ft | 435 kts | 313° |
| 2026-05-06 16:55 | 51.06592 | 8.54537 | 31555 ft | 437 kts | 323° |
| 2026-05-06 16:55 | 51.09122 | 8.51927 | 31307 ft | 431 kts | 324° |
| 2026-05-06 16:56 | 51.11628 | 8.49336 | 31082 ft | 427 kts | 324° |
| 2026-05-06 16:56 | 51.14121 | 8.46750 | 30819 ft | 425 kts | 324° |
| 2026-05-06 16:56 | 51.16590 | 8.44182 | 30537 ft | 420 kts | 324° |
| 2026-05-06 16:56 | 51.19022 | 8.41645 | 30039 ft | 418 kts | 324° |
| 2026-05-06 16:57 | 51.21451 | 8.39104 | 29458 ft | 415 kts | 324° |
| 2026-05-06 16:57 | 51.23856 | 8.36584 | 28959 ft | 410 kts | 324° |
| 2026-05-06 16:57 | 51.26224 | 8.34101 | 28458 ft | 406 kts | 324° |
| 2026-05-06 16:57 | 51.28576 | 8.31629 | 27951 ft | 403 kts | 325° |
| 2026-05-06 16:58 | 51.30911 | 8.29170 | 27470 ft | 399 kts | 325° |
| 2026-05-06 16:58 | 51.33194 | 8.26766 | 27003 ft | 395 kts | 325° |
| 2026-05-06 16:58 | 51.35486 | 8.24356 | 26561 ft | 391 kts | 325° |
| 2026-05-06 16:58 | 51.37761 | 8.21960 | 26102 ft | 388 kts | 325° |
| 2026-05-06 16:59 | 51.40014 | 8.19587 | 25668 ft | 385 kts | 325° |
| 2026-05-06 16:59 | 51.42247 | 8.17234 | 25233 ft | 382 kts | 325° |
| 2026-05-06 16:59 | 51.44462 | 8.14896 | 24741 ft | 380 kts | 325° |
| 2026-05-06 16:59 | 51.46607 | 8.12453 | 24283 ft | 377 kts | 316° |
| 2026-05-06 17:00 | 51.48302 | 8.09345 | 23817 ft | 373 kts | 301° |
| 2026-05-06 17:00 | 51.49451 | 8.05585 | 23321 ft | 369 kts | 286° |
| 2026-05-06 17:00 | 51.49941 | 8.01571 | 22807 ft | 364 kts | 272° |
| 2026-05-06 17:00 | 51.49777 | 7.97553 | 22338 ft | 360 kts | 257° |
| 2026-05-06 17:01 | 51.49169 | 7.93916 | 21902 ft | 357 kts | 253° |
| 2026-05-06 17:01 | 51.48461 | 7.89914 | 21349 ft | 356 kts | 253° |
| 2026-05-06 17:01 | 51.47785 | 7.86090 | 20877 ft | 354 kts | 253° |
| 2026-05-06 17:01 | 51.47115 | 7.82303 | 20415 ft | 352 kts | 253° |
| 2026-05-06 17:02 | 51.46447 | 7.78541 | 19954 ft | 350 kts | 253° |
| 2026-05-06 17:02 | 51.45786 | 7.74841 | 19499 ft | 349 kts | 253° |
| 2026-05-06 17:02 | 51.45113 | 7.71097 | 19037 ft | 347 kts | 253° |
| 2026-05-06 17:02 | 51.44446 | 7.67400 | 18593 ft | 346 kts | 254° |
| 2026-05-06 17:03 | 51.43776 | 7.63670 | 18136 ft | 346 kts | 254° |
| 2026-05-06 17:03 | 51.43084 | 7.59997 | 17632 ft | 345 kts | 249° |
| 2026-05-06 17:03 | 51.41877 | 7.56682 | 17151 ft | 345 kts | 235° |
| 2026-05-06 17:03 | 51.40438 | 7.53623 | 16661 ft | 338 kts | 233° |
| 2026-05-06 17:04 | 51.39035 | 7.50713 | 16196 ft | 333 kts | 233° |
| 2026-05-06 17:04 | 51.37618 | 7.47776 | 15741 ft | 329 kts | 234° |
| 2026-05-06 17:04 | 51.36222 | 7.44882 | 15287 ft | 319 kts | 233° |
| 2026-05-06 17:04 | 51.34883 | 7.42119 | 14835 ft | 310 kts | 233° |
| 2026-05-06 17:05 | 51.33593 | 7.39466 | 14408 ft | 306 kts | 233° |
| 2026-05-06 17:05 | 51.32272 | 7.36766 | 13971 ft | 308 kts | 233° |
| 2026-05-06 17:05 | 51.30948 | 7.34055 | 13662 ft | 307 kts | 233° |
| 2026-05-06 17:05 | 51.29664 | 7.31418 | 13663 ft | 302 kts | 233° |
| 2026-05-06 17:06 | 51.28363 | 7.28757 | 13636 ft | 301 kts | 233° |
| 2026-05-06 17:06 | 51.27063 | 7.26106 | 13166 ft | 304 kts | 233° |
| 2026-05-06 17:06 | 51.25749 | 7.23429 | 12678 ft | 306 kts | 233° |
| 2026-05-06 17:06 | 51.24439 | 7.20749 | 12221 ft | 307 kts | 233° |
| 2026-05-06 17:07 | 51.23126 | 7.18043 | 11767 ft | 308 kts | 234° |
| 2026-05-06 17:07 | 51.21807 | 7.15334 | 11330 ft | 309 kts | 233° |
| 2026-05-06 17:07 | 51.20497 | 7.12663 | 10889 ft | 310 kts | 234° |
| 2026-05-06 17:07 | 51.19133 | 7.09952 | 10507 ft | 310 kts | 233° |
| 2026-05-06 17:08 | 51.17795 | 7.07306 | 10136 ft | 309 kts | 233° |
| 2026-05-06 17:08 | 51.16445 | 7.04640 | 9777 ft | 307 kts | 233° |
| 2026-05-06 17:08 | 51.15104 | 7.01999 | 9382 ft | 306 kts | 233° |
| 2026-05-06 17:08 | 51.13764 | 6.99354 | 8990 ft | 304 kts | 233° |
| 2026-05-06 17:09 | 51.12446 | 6.96750 | 8606 ft | 301 kts | 234° |
| 2026-05-06 17:09 | 51.11133 | 6.94191 | 8286 ft | 295 kts | 233° |
| 2026-05-06 17:09 | 51.09866 | 6.91732 | 7971 ft | 278 kts | 233° |
| 2026-05-06 17:09 | 51.08683 | 6.89446 | 7693 ft | 264 kts | 233° |
| 2026-05-06 17:10 | 51.07510 | 6.87183 | 7439 ft | 261 kts | 233° |
| 2026-05-06 17:10 | 51.06358 | 6.84957 | 7197 ft | 259 kts | 233° |
| 2026-05-06 17:10 | 51.05231 | 6.82773 | 7011 ft | 258 kts | 233° |
| 2026-05-06 17:10 | 51.04166 | 6.80709 | 6814 ft | 254 kts | 233° |
| 2026-05-06 17:11 | 51.02993 | 6.78432 | 6604 ft | 252 kts | 233° |
| 2026-05-06 17:11 | 51.01886 | 6.76281 | 6409 ft | 251 kts | 233° |
| 2026-05-06 17:11 | 51.00781 | 6.74140 | 6209 ft | 251 kts | 233° |
| 2026-05-06 17:11 | 50.99873 | 6.71827 | 6001 ft | 246 kts | 253° |
| 2026-05-06 17:12 | 50.99647 | 6.69185 | 5788 ft | 239 kts | 278° |
| 2026-05-06 17:12 | 51.00137 | 6.66705 | 5560 ft | 234 kts | 303° |
| 2026-05-06 17:12 | 51.01222 | 6.64809 | 5330 ft | 232 kts | 327° |
| 2026-05-06 17:12 | 51.02667 | 6.63675 | 5101 ft | 232 kts | 337° |
| 2026-05-06 17:13 | 51.04132 | 6.62687 | 4869 ft | 230 kts | 339° |
| 2026-05-06 17:13 | 51.05585 | 6.61699 | 4642 ft | 223 kts | 337° |
| 2026-05-06 17:13 | 51.06998 | 6.60728 | 4393 ft | 221 kts | 338° |
| 2026-05-06 17:13 | 51.08401 | 6.59756 | 4176 ft | 221 kts | 337° |
| 2026-05-06 17:14 | 51.09813 | 6.58777 | 3944 ft | 221 kts | 337° |
| 2026-05-06 17:14 | 51.11205 | 6.57815 | 3703 ft | 221 kts | 337° |
| 2026-05-06 17:14 | 51.12611 | 6.56843 | 3483 ft | 218 kts | 338° |
| 2026-05-06 17:14 | 51.13972 | 6.55905 | 3234 ft | 212 kts | 337° |
| 2026-05-06 17:15 | 51.15288 | 6.54999 | 3114 ft | 198 kts | 338° |
| 2026-05-06 17:15 | 51.16535 | 6.54348 | 3029 ft | 185 kts | 358° |
| 2026-05-06 17:15 | 51.17794 | 6.54683 | 3040 ft | 186 kts | 26° |
| 2026-05-06 17:15 | 51.18762 | 6.55977 | 3047 ft | 187 kts | 51° |
| 2026-05-06 17:16 | 51.19558 | 6.57643 | 2978 ft | 182 kts | 51° |
| 2026-05-06 17:16 | 51.20323 | 6.59241 | 2725 ft | 180 kts | 51° |
| 2026-05-06 17:16 | 51.21070 | 6.60800 | 2490 ft | 177 kts | 51° |
| 2026-05-06 17:16 | 51.21816 | 6.62356 | 2246 ft | 174 kts | 50° |
| 2026-05-06 17:17 | 51.22527 | 6.63841 | 2011 ft | 166 kts | 49° |
| 2026-05-06 17:17 | 51.23217 | 6.65280 | 1801 ft | 163 kts | 50° |
| 2026-05-06 17:17 | 51.23910 | 6.66725 | 1578 ft | 162 kts | 49° |
| 2026-05-06 17:17 | 51.24557 | 6.68076 | 1375 ft | 163 kts | 50° |
| 2026-05-06 17:18 | 51.25244 | 6.69511 | 1157 ft | 164 kts | 50° |
| 2026-05-06 17:18 | 51.25939 | 6.70964 | 897 ft | 161 kts | 51° |
| 2026-05-06 17:18 | 51.26580 | 6.72310 | 674 ft | 145 kts | 50° |
| 2026-05-06 17:18 | 51.27166 | 6.73535 | 483 ft | 138 kts | 51° |
| 2026-05-06 17:19 | 51.27752 | 6.74762 | 301 ft | 137 kts | 51° |
| 2026-05-06 17:19 | 51.28299 | 6.75919 | 134 ft | 132 kts | 52° |
| 2026-05-06 17:19 | 51.28790 | 6.76923 | 124 ft | 91 kts | 53° |
| 2026-05-06 17:19 | 51.28997 | 6.77361 | 126 ft | 57 kts | 56° |
| 2026-05-06 17:20 | 51.29168 | 6.77750 | 132 ft | 37 kts | 53° |
| 2026-05-06 17:20 | 51.29278 | 6.77974 | 137 ft | 10 kts | 54° |
| 2026-05-06 17:20 | 51.29290 | 6.78123 | 139 ft | 10 kts | 110° |
| 2026-05-06 17:20 | 51.29265 | 6.78182 | 137 ft | 10 kts | 135° |
| 2026-05-06 17:21 | 51.29216 | 6.78219 | 137 ft | 5 kts | 176° |
| 2026-05-06 17:21 | 51.29186 | 6.78213 | 136 ft | 4 kts | 195° |
| 2026-05-06 17:21 | 51.29163 | 6.78189 | 135 ft | 4 kts | 222° |
| 2026-05-06 17:21 | 51.29142 | 6.78143 | 134 ft | 6 kts | 235° |
| 2026-05-06 17:22 | 51.29114 | 6.78087 | 132 ft | 7 kts | 230° |
| 2026-05-06 17:22 | 51.29075 | 6.78010 | 129 ft | 14 kts | 231° |
| 2026-05-06 17:22 | 51.28991 | 6.77829 | 130 ft | 24 kts | 233° |
| 2026-05-06 17:22 | 51.28910 | 6.77657 | 128 ft | 17 kts | 233° |
| 2026-05-06 17:23 | 51.28841 | 6.77511 | 127 ft | 16 kts | 233° |
| 2026-05-06 17:23 | 51.28792 | 6.77408 | 127 ft | 10 kts | 232° |
| 2026-05-06 17:23 | 51.28740 | 6.77299 | 127 ft | 14 kts | 233° |
| 2026-05-06 17:23 | 51.28685 | 6.77183 | 127 ft | 12 kts | 232° |
| 2026-05-06 17:24 | 51.28631 | 6.77072 | 124 ft | 16 kts | 232° |
| 2026-05-06 17:24 | 51.28543 | 6.76887 | 126 ft | 24 kts | 232° |
| 2026-05-06 17:24 | 51.28436 | 6.76661 | 122 ft | 27 kts | 233° |
| 2026-05-06 17:24 | 51.28322 | 6.76424 | 126 ft | 24 kts | 233° |
| 2026-05-06 17:25 | 51.28230 | 6.76229 | 128 ft | 18 kts | 233° |
| 2026-05-06 17:25 | 51.28173 | 6.76109 | 129 ft | 11 kts | 233° |
| 2026-05-06 17:25 | 51.28137 | 6.76039 | 128 ft | 7 kts | 223° |
| 2026-05-06 17:25 | 51.28098 | 6.76030 | 129 ft | 8 kts | 156° |
| 2026-05-06 17:26 | 51.28029 | 6.76047 | 125 ft | 14 kts | 181° |
| 2026-05-06 17:26 | 51.27931 | 6.76047 | 128 ft | 12 kts | 180° |
| 2026-05-06 17:26 | 51.27862 | 6.76058 | 124 ft | 11 kts | 153° |
| 2026-05-06 17:26 | 51.27841 | 6.76146 | 126 ft | 10 kts | 93° |
| 2026-05-06 17:27 | 51.27840 | 6.76212 | 128 ft | 5 kts | 91° |
| 2026-05-06 17:27 | 51.27843 | 6.76250 | 125 ft | 3 kts | 65° |
| 2026-05-06 17:27 | 51.27872 | 6.76302 | 126 ft | 3 kts | 51° |
| 2026-05-06 17:27 | 51.27876 | 6.76310 | 128 ft | 1 kts | 51° |
| 2026-05-06 17:28 | 51.27882 | 6.76321 | 128 ft | 1 kts | 51° |
| 2026-05-06 17:28 | 51.27885 | 6.76328 | 127 ft | 0 kts | 50° |
| 2026-05-06 17:28 | 51.27886 | 6.76329 | 127 ft | 0 kts | 50° |
| 2026-05-06 17:28 | 51.27887 | 6.76332 | 128 ft | 0 kts | 50° |